Time;durP1;ratioP1;P1;durP2;ratioP2;P2;SDS_P1;SDS_P2;PMS_P1;PMS_P2;Temp;Humidity;BMP_temperature;BMP_pressure;BME280_temperature;BME280_humidity;BME280_pressure;Samples;Min_cycle;Max_cycle;Signal;HPM_P1;HPM_P2
2023/12/12 00:00:24;;;;;;;0.03;0.03;;;;;;;;;;1725339;28;20200;-63
2023/12/12 00:01:20;;;;;;;0.00;0.00;;;;;;;;;;1730497;28;20583;-62
2023/12/12 00:02:11;;;;;;;0.00;0.00;;;;;;;;;;1731607;28;20687;-63
2023/12/12 00:03:03;;;;;;;0.00;0.00;;;;;;;;;;1732345;28;20572;-67
2023/12/12 00:03:54;;;;;;;0.00;0.00;;;;;;;;;;1731516;28;20212;-62
2023/12/12 00:04:46;;;;;;;0.00;0.00;;;;;;;;;;1732266;28;20207;-62
2023/12/12 00:05:37;;;;;;;0.00;0.00;;;;;;;;;;1730742;28;20212;-61
2023/12/12 00:06:29;;;;;;;0.00;0.00;;;;;;;;;;1729857;28;20733;-61
2023/12/12 00:07:21;;;;;;;0.00;0.00;;;;;;;;;;1731423;28;20267;-62
2023/12/12 00:08:12;;;;;;;0.00;0.00;;;;;;;;;;1732074;28;20264;-63
2023/12/12 00:09:04;;;;;;;0.00;0.00;;;;;;;;;;1729432;28;20204;-64
2023/12/12 00:09:55;;;;;;;0.00;0.00;;;;;;;;;;1729635;28;20646;-62
2023/12/12 00:10:47;;;;;;;0.03;0.03;;;;;;;;;;1730168;28;20665;-63
2023/12/12 00:11:39;;;;;;;0.03;0.03;;;;;;;;;;1732305;28;20238;-65
2023/12/12 00:12:30;;;;;;;0.00;0.00;;;;;;;;;;1729348;28;20208;-64
2023/12/12 00:13:22;;;;;;;0.00;0.00;;;;;;;;;;1731318;28;20559;-62
2023/12/12 00:14:13;;;;;;;0.00;0.00;;;;;;;;;;1730569;28;20212;-66
2023/12/12 00:15:06;;;;;;;0.00;0.00;;;;;;;;;;1732133;28;20261;-63
2023/12/12 00:15:57;;;;;;;0.00;0.00;;;;;;;;;;1730969;28;20263;-62
2023/12/12 00:16:49;;;;;;;0.00;0.00;;;;;;;;;;1729250;28;20592;-65
2023/12/12 00:17:40;;;;;;;0.00;0.00;;;;;;;;;;1727378;28;20293;-64
2023/12/12 00:18:33;;;;;;;0.00;0.00;;;;;;;;;;1729682;28;20200;-62
2023/12/12 00:19:25;;;;;;;0.00;0.00;;;;;;;;;;1732089;28;20214;-67
2023/12/12 00:20:16;;;;;;;0.10;0.10;;;;;;;;;;1730516;28;20215;-68
2023/12/12 00:21:07;;;;;;;0.00;0.00;;;;;;;;;;1731887;28;20208;-62
2023/12/12 00:21:59;;;;;;;0.00;0.00;;;;;;;;;;1731844;28;20630;-66
2023/12/12 00:22:50;;;;;;;0.00;0.00;;;;;;;;;;1731903;28;20253;-62
2023/12/12 00:23:41;;;;;;;0.00;0.00;;;;;;;;;;1731651;28;20204;-63
2023/12/12 00:24:33;;;;;;;0.00;0.00;;;;;;;;;;1732410;28;21661;-63
2023/12/12 00:25:24;;;;;;;0.00;0.00;;;;;;;;;;1725533;28;20262;-61
2023/12/12 00:26:16;;;;;;;0.00;0.00;;;;;;;;;;1731924;28;20233;-63
2023/12/12 00:27:08;;;;;;;0.00;0.00;;;;;;;;;;1733712;28;20231;-61
2023/12/12 00:27:59;;;;;;;0.00;0.00;;;;;;;;;;1732260;28;20303;-61
2023/12/12 00:28:50;;;;;;;0.00;0.00;;;;;;;;;;1731552;28;20555;-61
2023/12/12 00:29:45;;;;;;;0.00;0.00;;;;;;;;;;1731940;28;20610;-61
2023/12/12 00:30:36;;;;;;;0.00;0.00;;;;;;;;;;1730956;28;20250;-64
2023/12/12 00:31:27;;;;;;;0.00;0.00;;;;;;;;;;1731230;28;20227;-63
2023/12/12 00:32:19;;;;;;;0.00;0.00;;;;;;;;;;1730370;28;20214;-64
2023/12/12 00:33:10;;;;;;;0.00;0.00;;;;;;;;;;1730246;28;20216;-63
2023/12/12 00:34:02;;;;;;;0.00;0.00;;;;;;;;;;1730639;28;20226;-63
2023/12/12 00:34:53;;;;;;;0.00;0.00;;;;;;;;;;1732050;28;20290;-65
2023/12/12 00:35:44;;;;;;;0.00;0.00;;;;;;;;;;1729618;28;20236;-64
2023/12/12 00:36:36;;;;;;;0.00;0.00;;;;;;;;;;1731828;28;20210;-64
2023/12/12 00:37:27;;;;;;;0.00;0.00;;;;;;;;;;1731445;28;20227;-65
2023/12/12 00:38:18;;;;;;;0.00;0.00;;;;;;;;;;1732112;28;20208;-63
2023/12/12 00:39:10;;;;;;;0.00;0.00;;;;;;;;;;1731816;28;20219;-64
2023/12/12 00:40:01;;;;;;;0.00;0.00;;;;;;;;;;1731834;28;20678;-64
2023/12/12 00:40:53;;;;;;;0.00;0.00;;;;;;;;;;1730308;28;20538;-62
2023/12/12 00:41:46;;;;;;;0.00;0.00;;;;;;;;;;1731842;28;20707;-63
2023/12/12 00:42:37;;;;;;;0.00;0.00;;;;;;;;;;1731539;28;20691;-62
2023/12/12 00:43:29;;;;;;;0.00;0.00;;;;;;;;;;1732423;28;20687;-62
2023/12/12 00:44:20;;;;;;;0.00;0.00;;;;;;;;;;1731521;28;20215;-63
2023/12/12 00:45:12;;;;;;;0.00;0.00;;;;;;;;;;1731809;28;20207;-62
2023/12/12 00:46:05;;;;;;;0.00;0.00;;;;;;;;;;1730454;28;20224;-63
2023/12/12 00:46:56;;;;;;;0.00;0.00;;;;;;;;;;1731109;28;20215;-60
2023/12/12 00:47:47;;;;;;;0.00;0.00;;;;;;;;;;1731164;28;20208;-62
2023/12/12 00:48:39;;;;;;;0.03;0.03;;;;;;;;;;1731515;28;20199;-62
2023/12/12 00:49:30;;;;;;;0.00;0.00;;;;;;;;;;1732233;28;20246;-62
2023/12/12 00:50:22;;;;;;;0.00;0.00;;;;;;;;;;1730211;28;20210;-62
2023/12/12 00:51:13;;;;;;;0.00;0.00;;;;;;;;;;1732006;28;20216;-62
2023/12/12 00:52:04;;;;;;;0.00;0.00;;;;;;;;;;1731571;28;20234;-62
2023/12/12 00:52:56;;;;;;;0.00;0.00;;;;;;;;;;1731213;28;20722;-64
2023/12/12 00:53:47;;;;;;;0.00;0.00;;;;;;;;;;1731460;28;20207;-64
2023/12/12 00:54:38;;;;;;;0.00;0.00;;;;;;;;;;1731704;28;20763;-63
2023/12/12 00:55:31;;;;;;;0.00;0.00;;;;;;;;;;1730681;28;20239;-65
2023/12/12 00:56:22;;;;;;;0.00;0.00;;;;;;;;;;1731700;28;20231;-67
2023/12/12 00:57:15;;;;;;;0.00;0.00;;;;;;;;;;1731111;28;20856;-62
2023/12/12 00:58:06;;;;;;;0.10;0.10;;;;;;;;;;1731938;28;20277;-62
2023/12/12 00:58:58;;;;;;;0.00;0.00;;;;;;;;;;1731284;28;20199;-61
2023/12/12 00:59:49;;;;;;;0.00;0.00;;;;;;;;;;1731907;28;20245;-61
2023/12/12 01:00:41;;;;;;;0.00;0.00;;;;;;;;;;1730365;28;20231;-62
2023/12/12 01:01:32;;;;;;;0.00;0.00;;;;;;;;;;1731255;28;20349;-62
2023/12/12 01:02:23;;;;;;;0.00;0.00;;;;;;;;;;1729536;28;20240;-63
2023/12/12 01:03:15;;;;;;;0.00;0.00;;;;;;;;;;1730611;28;20238;-61
2023/12/12 01:04:07;;;;;;;0.00;0.00;;;;;;;;;;1731220;28;20625;-60
2023/12/12 01:04:59;;;;;;;0.00;0.00;;;;;;;;;;1731443;28;20203;-61
2023/12/12 01:05:51;;;;;;;0.00;0.00;;;;;;;;;;1730213;28;20246;-64
2023/12/12 01:06:42;;;;;;;0.00;0.00;;;;;;;;;;1729092;28;20265;-67
2023/12/12 01:07:33;;;;;;;0.00;0.00;;;;;;;;;;1731362;28;20713;-62
2023/12/12 01:08:25;;;;;;;0.00;0.00;;;;;;;;;;1731723;28;20611;-65
2023/12/12 01:09:19;;;;;;;0.10;0.10;;;;;;;;;;1731319;28;20445;-62
2023/12/12 01:10:11;;;;;;;0.00;0.00;;;;;;;;;;1732023;28;20657;-62
2023/12/12 01:11:02;;;;;;;0.00;0.00;;;;;;;;;;1730133;28;20231;-63
2023/12/12 01:11:53;;;;;;;0.00;0.00;;;;;;;;;;1731800;28;20666;-60
2023/12/12 01:12:47;;;;;;;0.00;0.00;;;;;;;;;;1731286;28;20552;-61
2023/12/12 01:13:38;;;;;;;0.00;0.00;;;;;;;;;;1731613;28;20207;-66
2023/12/12 01:14:29;;;;;;;0.00;0.00;;;;;;;;;;1732111;28;20196;-66
2023/12/12 01:15:21;;;;;;;0.00;0.00;;;;;;;;;;1731097;28;20266;-63
2023/12/12 01:16:12;;;;;;;0.00;0.00;;;;;;;;;;1730865;28;20277;-64
2023/12/12 01:17:04;;;;;;;0.00;0.00;;;;;;;;;;1730447;28;20667;-65
2023/12/12 01:17:55;;;;;;;0.00;0.00;;;;;;;;;;1731555;28;20212;-61
2023/12/12 01:18:47;;;;;;;0.00;0.00;;;;;;;;;;1731412;28;20294;-61
2023/12/12 01:19:38;;;;;;;0.00;0.00;;;;;;;;;;1731619;28;20220;-63
2023/12/12 01:20:30;;;;;;;0.00;0.00;;;;;;;;;;1730687;28;20214;-64
2023/12/12 01:21:21;;;;;;;0.00;0.00;;;;;;;;;;1731632;28;20212;-61
2023/12/12 01:22:12;;;;;;;0.00;0.00;;;;;;;;;;1731499;28;20734;-65
2023/12/12 01:23:04;;;;;;;0.00;0.00;;;;;;;;;;1731939;28;20211;-61
2023/12/12 01:23:55;;;;;;;0.00;0.00;;;;;;;;;;1731708;28;20224;-61
2023/12/12 01:24:46;;;;;;;0.00;0.00;;;;;;;;;;1732275;28;20215;-61
2023/12/12 01:25:38;;;;;;;0.00;0.00;;;;;;;;;;1730679;28;20297;-60
2023/12/12 01:26:29;;;;;;;0.00;0.00;;;;;;;;;;1732426;28;20662;-60
2023/12/12 01:27:20;;;;;;;0.00;0.00;;;;;;;;;;1731192;28;20572;-61
2023/12/12 01:28:14;;;;;;;0.00;0.00;;;;;;;;;;1732090;28;20200;-62
2023/12/12 01:29:05;;;;;;;0.00;0.00;;;;;;;;;;1729504;28;20275;-61
2023/12/12 01:29:57;;;;;;;0.00;0.00;;;;;;;;;;1731863;28;20264;-61
2023/12/12 01:30:48;;;;;;;0.00;0.00;;;;;;;;;;1730451;28;20639;-61
2023/12/12 01:31:39;;;;;;;0.00;0.00;;;;;;;;;;1731736;28;20290;-60
2023/12/12 01:32:31;;;;;;;0.00;0.00;;;;;;;;;;1731873;28;20201;-61
2023/12/12 01:33:23;;;;;;;0.00;0.00;;;;;;;;;;1731920;28;20464;-61
2023/12/12 01:34:15;;;;;;;0.00;0.00;;;;;;;;;;1731616;28;20207;-61
2023/12/12 01:35:06;;;;;;;0.00;0.00;;;;;;;;;;1732176;28;20731;-62
2023/12/12 01:35:57;;;;;;;0.00;0.00;;;;;;;;;;1730076;28;20235;-64
2023/12/12 01:36:49;;;;;;;0.00;0.00;;;;;;;;;;1731745;28;20200;-61
2023/12/12 01:37:40;;;;;;;0.00;0.00;;;;;;;;;;1731148;28;20208;-62
2023/12/12 01:38:33;;;;;;;0.00;0.00;;;;;;;;;;1732440;28;20207;-64
2023/12/12 01:39:24;;;;;;;0.00;0.00;;;;;;;;;;1731748;28;20288;-63
2023/12/12 01:40:16;;;;;;;0.00;0.00;;;;;;;;;;1731413;28;20203;-65
2023/12/12 01:41:07;;;;;;;0.00;0.00;;;;;;;;;;1730677;28;20322;-64
2023/12/12 01:41:59;;;;;;;0.00;0.00;;;;;;;;;;1731311;28;20682;-63
2023/12/12 01:42:50;;;;;;;0.00;0.00;;;;;;;;;;1731602;28;20257;-65
2023/12/12 01:43:43;;;;;;;0.00;0.00;;;;;;;;;;1731414;28;20208;-64
2023/12/12 01:44:34;;;;;;;0.00;0.00;;;;;;;;;;1731997;28;20246;-63
2023/12/12 01:45:26;;;;;;;0.00;0.00;;;;;;;;;;1730897;28;20238;-63
2023/12/12 01:46:19;;;;;;;0.00;0.00;;;;;;;;;;1730751;28;20465;-62
2023/12/12 01:47:11;;;;;;;0.00;0.00;;;;;;;;;;1728173;28;20228;-61
2023/12/12 01:48:03;;;;;;;0.00;0.00;;;;;;;;;;1728577;28;20615;-65
2023/12/12 01:48:55;;;;;;;0.00;0.00;;;;;;;;;;1731594;28;20222;-62
2023/12/12 01:49:46;;;;;;;0.00;0.00;;;;;;;;;;1731819;28;20290;-61
2023/12/12 01:50:37;;;;;;;0.00;0.00;;;;;;;;;;1730124;28;20306;-62
2023/12/12 01:51:29;;;;;;;0.00;0.00;;;;;;;;;;1731730;28;20679;-61
2023/12/12 01:52:21;;;;;;;0.00;0.00;;;;;;;;;;1731005;28;20208;-62
2023/12/12 01:53:13;;;;;;;0.00;0.00;;;;;;;;;;1731646;28;20242;-63
2023/12/12 01:54:06;;;;;;;0.00;0.00;;;;;;;;;;1731424;28;20206;-63
2023/12/12 01:54:58;;;;;;;0.00;0.00;;;;;;;;;;1731287;28;20215;-64
2023/12/12 01:55:50;;;;;;;0.00;0.00;;;;;;;;;;1729984;28;20868;-64
2023/12/12 01:56:42;;;;;;;0.00;0.00;;;;;;;;;;1731309;28;20598;-63
2023/12/12 01:57:33;;;;;;;0.00;0.00;;;;;;;;;;1731300;28;20227;-64
2023/12/12 01:58:25;;;;;;;0.00;0.00;;;;;;;;;;1731618;28;20200;-65
2023/12/12 01:59:18;;;;;;;0.00;0.00;;;;;;;;;;1731181;28;20675;-64
2023/12/12 02:00:10;;;;;;;0.00;0.00;;;;;;;;;;1731796;28;20208;-62
2023/12/12 02:01:02;;;;;;;0.00;0.00;;;;;;;;;;1729678;28;20297;-63
2023/12/12 02:01:54;;;;;;;0.00;0.00;;;;;;;;;;1730797;28;20906;-64
2023/12/12 02:02:46;;;;;;;0.00;0.00;;;;;;;;;;1730992;28;20208;-65
2023/12/12 02:03:37;;;;;;;0.00;0.00;;;;;;;;;;1731424;28;20199;-62
2023/12/12 02:04:29;;;;;;;0.00;0.00;;;;;;;;;;1731628;28;20242;-64
2023/12/12 02:05:21;;;;;;;0.00;0.00;;;;;;;;;;1729851;28;20208;-64
2023/12/12 02:06:14;;;;;;;0.00;0.00;;;;;;;;;;1731340;28;20254;-67
2023/12/12 02:07:06;;;;;;;0.00;0.00;;;;;;;;;;1727574;28;20233;-65
2023/12/12 02:07:58;;;;;;;0.00;0.00;;;;;;;;;;1728553;28;20222;-65
2023/12/12 02:08:49;;;;;;;0.00;0.00;;;;;;;;;;1728286;28;20611;-63
2023/12/12 02:09:42;;;;;;;0.00;0.00;;;;;;;;;;1731874;28;20203;-63
2023/12/12 02:10:34;;;;;;;0.00;0.00;;;;;;;;;;1726507;28;20318;-63
2023/12/12 02:11:26;;;;;;;0.00;0.00;;;;;;;;;;1731206;28;20200;-67
2023/12/12 02:12:17;;;;;;;0.00;0.00;;;;;;;;;;1731162;28;20284;-66
2023/12/12 02:13:08;;;;;;;0.00;0.00;;;;;;;;;;1731552;28;20200;-66
2023/12/12 02:14:01;;;;;;;0.00;0.00;;;;;;;;;;1731231;28;20341;-67
2023/12/12 02:14:54;;;;;;;0.00;0.00;;;;;;;;;;1731547;28;20212;-66
2023/12/12 02:15:46;;;;;;;0.00;0.00;;;;;;;;;;1729696;28;20288;-62
2023/12/12 02:16:37;;;;;;;0.00;0.00;;;;;;;;;;1728403;28;20208;-62
2023/12/12 02:17:28;;;;;;;0.00;0.00;;;;;;;;;;1728996;28;20247;-62
2023/12/12 02:18:20;;;;;;;0.00;0.00;;;;;;;;;;1730427;28;20200;-62
2023/12/12 02:19:12;;;;;;;0.00;0.00;;;;;;;;;;1728686;28;20613;-64
2023/12/12 02:20:03;;;;;;;0.00;0.00;;;;;;;;;;1727635;28;20219;-63
2023/12/12 02:20:56;;;;;;;0.00;0.00;;;;;;;;;;1729498;28;20247;-64
2023/12/12 02:21:48;;;;;;;0.00;0.00;;;;;;;;;;1731250;28;20207;-62
2023/12/12 02:22:39;;;;;;;0.00;0.00;;;;;;;;;;1728280;28;20204;-65
2023/12/12 02:23:32;;;;;;;0.00;0.00;;;;;;;;;;1728821;28;20203;-66
2023/12/12 02:24:23;;;;;;;0.00;0.00;;;;;;;;;;1730779;28;20268;-62
2023/12/12 02:25:17;;;;;;;0.00;0.00;;;;;;;;;;1729840;28;20630;-64
2023/12/12 02:26:08;;;;;;;0.00;0.00;;;;;;;;;;1730126;28;20306;-62
2023/12/12 02:27:00;;;;;;;0.00;0.00;;;;;;;;;;1727651;28;20207;-62
2023/12/12 02:27:51;;;;;;;0.00;0.00;;;;;;;;;;1731041;28;20227;-62
2023/12/12 02:28:42;;;;;;;0.00;0.00;;;;;;;;;;1731056;28;20204;-62
2023/12/12 02:29:34;;;;;;;0.00;0.00;;;;;;;;;;1731446;28;20211;-63
2023/12/12 02:30:26;;;;;;;0.00;0.00;;;;;;;;;;1730161;28;20222;-63
2023/12/12 02:31:17;;;;;;;0.00;0.00;;;;;;;;;;1730761;28;20209;-62
2023/12/12 02:32:09;;;;;;;0.10;0.10;;;;;;;;;;1730929;28;20211;-62
2023/12/12 02:33:00;;;;;;;0.00;0.00;;;;;;;;;;1728398;28;20621;-62
2023/12/12 02:33:52;;;;;;;0.00;0.00;;;;;;;;;;1729683;28;20203;-62
2023/12/12 02:34:43;;;;;;;0.00;0.00;;;;;;;;;;1731305;28;20262;-60
2023/12/12 02:35:34;;;;;;;0.00;0.00;;;;;;;;;;1730048;28;21233;-65
2023/12/12 02:36:26;;;;;;;0.00;0.00;;;;;;;;;;1731055;28;20200;-63
2023/12/12 02:37:18;;;;;;;0.00;0.00;;;;;;;;;;1730878;28;20235;-63
2023/12/12 02:38:09;;;;;;;0.00;0.00;;;;;;;;;;1731252;28;20218;-65
2023/12/12 02:39:02;;;;;;;0.00;0.00;;;;;;;;;;1731154;28;20241;-68
2023/12/12 02:39:53;;;;;;;0.00;0.00;;;;;;;;;;1731443;28;20214;-66
2023/12/12 02:40:44;;;;;;;0.00;0.00;;;;;;;;;;1729728;28;20239;-62
2023/12/12 02:41:36;;;;;;;0.00;0.00;;;;;;;;;;1731499;28;20211;-66
2023/12/12 02:42:27;;;;;;;0.00;0.00;;;;;;;;;;1730852;28;20211;-67
2023/12/12 02:43:18;;;;;;;0.00;0.00;;;;;;;;;;1731372;28;20257;-62
2023/12/12 02:44:10;;;;;;;0.00;0.00;;;;;;;;;;1731204;28;20322;-66
2023/12/12 02:45:01;;;;;;;0.00;0.00;;;;;;;;;;1731181;28;20682;-63
2023/12/12 02:45:52;;;;;;;0.00;0.00;;;;;;;;;;1729928;28;20774;-64
2023/12/12 02:46:44;;;;;;;0.00;0.00;;;;;;;;;;1727316;28;20208;-64
2023/12/12 02:47:35;;;;;;;0.00;0.00;;;;;;;;;;1727656;28;20691;-63
2023/12/12 02:48:26;;;;;;;0.00;0.00;;;;;;;;;;1729348;28;20623;-63
2023/12/12 02:49:18;;;;;;;0.00;0.00;;;;;;;;;;1729612;28;20208;-63
2023/12/12 02:50:09;;;;;;;0.00;0.00;;;;;;;;;;1731622;28;20207;-65
2023/12/12 02:51:01;;;;;;;0.00;0.00;;;;;;;;;;1729360;28;20689;-62
2023/12/12 02:51:52;;;;;;;0.00;0.00;;;;;;;;;;1726950;28;20209;-63
2023/12/12 02:52:45;;;;;;;0.00;0.00;;;;;;;;;;1728500;28;20255;-63
2023/12/12 02:53:44;;;;;;;0.00;0.00;;;;;;;;;;1731581;28;20218;-62
2023/12/12 02:54:35;;;;;;;0.00;0.00;;;;;;;;;;1731451;28;20286;-64
2023/12/12 02:55:26;;;;;;;0.00;0.00;;;;;;;;;;1729521;28;20219;-63
2023/12/12 02:56:18;;;;;;;0.00;0.00;;;;;;;;;;1730416;28;20695;-63
2023/12/12 02:57:09;;;;;;;0.00;0.00;;;;;;;;;;1727120;28;20281;-64
2023/12/12 02:58:00;;;;;;;0.00;0.00;;;;;;;;;;1728514;28;20250;-64
2023/12/12 02:58:52;;;;;;;0.00;0.00;;;;;;;;;;1728308;28;20291;-65
2023/12/12 02:59:43;;;;;;;0.00;0.00;;;;;;;;;;1732880;28;20212;-63
2023/12/12 03:00:34;;;;;;;0.00;0.00;;;;;;;;;;1731518;28;20241;-66
2023/12/12 03:01:26;;;;;;;0.00;0.00;;;;;;;;;;1731293;28;20212;-62
2023/12/12 03:02:17;;;;;;;0.00;0.00;;;;;;;;;;1731292;28;20330;-63
2023/12/12 03:03:08;;;;;;;0.00;0.00;;;;;;;;;;1730493;28;20212;-66
2023/12/12 03:03:59;;;;;;;0.00;0.00;;;;;;;;;;1731167;28;20243;-63
2023/12/12 03:04:50;;;;;;;0.00;0.00;;;;;;;;;;1732488;28;20261;-62
2023/12/12 03:05:42;;;;;;;0.00;0.00;;;;;;;;;;1731026;28;21831;-62
2023/12/12 03:06:33;;;;;;;0.00;0.00;;;;;;;;;;1732494;28;20738;-64
2023/12/12 03:07:24;;;;;;;0.00;0.00;;;;;;;;;;1731640;28;20223;-62
2023/12/12 03:08:18;;;;;;;0.00;0.00;;;;;;;;;;1732445;28;20203;-62
2023/12/12 03:09:09;;;;;;;0.00;0.00;;;;;;;;;;1732362;28;20212;-64
2023/12/12 03:10:00;;;;;;;0.00;0.00;;;;;;;;;;1732197;28;20261;-64
2023/12/12 03:10:52;;;;;;;0.00;0.00;;;;;;;;;;1731469;28;20231;-65
2023/12/12 03:11:43;;;;;;;0.00;0.00;;;;;;;;;;1732760;28;20282;-64
2023/12/12 03:12:34;;;;;;;0.00;0.00;;;;;;;;;;1729188;28;20208;-65
2023/12/12 03:13:26;;;;;;;0.00;0.00;;;;;;;;;;1730688;28;20218;-66
2023/12/12 03:14:17;;;;;;;0.00;0.00;;;;;;;;;;1731109;28;20203;-65
2023/12/12 03:15:08;;;;;;;0.00;0.00;;;;;;;;;;1732717;28;20342;-68
2023/12/12 03:16:00;;;;;;;0.00;0.00;;;;;;;;;;1730492;28;20722;-63
2023/12/12 03:16:51;;;;;;;0.00;0.00;;;;;;;;;;1732556;28;20203;-62
2023/12/12 03:17:43;;;;;;;0.00;0.00;;;;;;;;;;1730980;28;20227;-64
2023/12/12 03:18:35;;;;;;;0.00;0.00;;;;;;;;;;1732499;28;20591;-67
2023/12/12 03:19:26;;;;;;;0.00;0.00;;;;;;;;;;1732296;28;20260;-64
2023/12/12 03:20:17;;;;;;;0.00;0.00;;;;;;;;;;1731332;28;20200;-65
2023/12/12 03:21:09;;;;;;;0.00;0.00;;;;;;;;;;1731444;28;20207;-64
2023/12/12 03:22:00;;;;;;;0.00;0.00;;;;;;;;;;1727223;28;20208;-62
2023/12/12 03:22:52;;;;;;;0.00;0.00;;;;;;;;;;1729317;28;20210;-63
2023/12/12 03:23:45;;;;;;;0.00;0.00;;;;;;;;;;1732550;28;20208;-65
2023/12/12 03:24:36;;;;;;;0.00;0.00;;;;;;;;;;1732109;28;20671;-62
2023/12/12 03:25:28;;;;;;;0.00;0.00;;;;;;;;;;1730636;28;20293;-66
2023/12/12 03:26:19;;;;;;;0.00;0.00;;;;;;;;;;1732031;28;20273;-65
2023/12/12 03:27:10;;;;;;;0.00;0.00;;;;;;;;;;1733699;28;20230;-62
2023/12/12 03:28:02;;;;;;;0.00;0.00;;;;;;;;;;1732256;28;20321;-62
2023/12/12 03:28:53;;;;;;;0.00;0.00;;;;;;;;;;1731888;28;20417;-64
2023/12/12 03:29:44;;;;;;;0.00;0.00;;;;;;;;;;1732958;28;20713;-63
2023/12/12 03:30:36;;;;;;;0.00;0.00;;;;;;;;;;1730787;28;20663;-63
2023/12/12 03:31:27;;;;;;;0.00;0.00;;;;;;;;;;1731428;28;20204;-63
2023/12/12 03:32:18;;;;;;;0.00;0.00;;;;;;;;;;1730687;28;20199;-64
2023/12/12 03:33:10;;;;;;;0.00;0.00;;;;;;;;;;1730596;28;20242;-64
2023/12/12 03:34:01;;;;;;;0.00;0.00;;;;;;;;;;1731077;28;20212;-64
2023/12/12 03:34:53;;;;;;;0.00;0.00;;;;;;;;;;1731904;28;20206;-62
2023/12/12 03:35:45;;;;;;;0.00;0.00;;;;;;;;;;1735194;28;20702;-62
2023/12/12 03:36:36;;;;;;;0.00;0.00;;;;;;;;;;1739074;28;20655;-64
2023/12/12 03:37:28;;;;;;;0.00;0.00;;;;;;;;;;1738787;28;20223;-62
2023/12/12 03:38:19;;;;;;;0.00;0.00;;;;;;;;;;1739235;28;20207;-62
2023/12/12 03:39:11;;;;;;;0.00;0.00;;;;;;;;;;1738556;28;20203;-63
2023/12/12 03:40:03;;;;;;;0.00;0.00;;;;;;;;;;1734482;28;20211;-65
2023/12/12 03:40:54;;;;;;;0.00;0.00;;;;;;;;;;1731242;28;20310;-63
2023/12/12 03:41:46;;;;;;;0.00;0.00;;;;;;;;;;1728041;28;20232;-63
2023/12/12 03:42:37;;;;;;;0.00;0.00;;;;;;;;;;1731810;28;20211;-65
2023/12/12 03:43:28;;;;;;;0.00;0.00;;;;;;;;;;1730083;28;20199;-64
2023/12/12 03:44:20;;;;;;;0.00;0.00;;;;;;;;;;1731320;28;20236;-65
2023/12/12 03:45:11;;;;;;;0.00;0.00;;;;;;;;;;1731741;28;20330;-63
2023/12/12 03:46:02;;;;;;;0.00;0.00;;;;;;;;;;1731124;28;20326;-66
2023/12/12 03:46:54;;;;;;;0.00;0.00;;;;;;;;;;1732060;28;20626;-64
2023/12/12 03:47:46;;;;;;;0.00;0.00;;;;;;;;;;1731935;28;20294;-64
2023/12/12 03:48:37;;;;;;;0.00;0.00;;;;;;;;;;1732041;28;20207;-66
2023/12/12 03:49:29;;;;;;;0.00;0.00;;;;;;;;;;1732028;28;20207;-67
2023/12/12 03:50:20;;;;;;;0.00;0.00;;;;;;;;;;1730861;28;20302;-61
2023/12/12 03:51:11;;;;;;;0.00;0.00;;;;;;;;;;1732320;28;20682;-62
2023/12/12 03:52:03;;;;;;;0.00;0.00;;;;;;;;;;1727310;28;20617;-65
2023/12/12 03:52:54;;;;;;;0.00;0.00;;;;;;;;;;1732332;28;20212;-62
2023/12/12 03:53:45;;;;;;;0.00;0.00;;;;;;;;;;1732124;28;20254;-62
2023/12/12 03:54:38;;;;;;;0.00;0.00;;;;;;;;;;1732411;28;20623;-65
2023/12/12 03:55:29;;;;;;;0.00;0.00;;;;;;;;;;1730866;28;20247;-63
2023/12/12 03:56:21;;;;;;;0.00;0.00;;;;;;;;;;1730906;28;20208;-64
2023/12/12 03:57:12;;;;;;;0.00;0.00;;;;;;;;;;1727922;28;20593;-64
2023/12/12 03:58:05;;;;;;;0.00;0.00;;;;;;;;;;1729722;28;20207;-64
2023/12/12 03:58:56;;;;;;;0.00;0.00;;;;;;;;;;1731672;28;20223;-62
2023/12/12 03:59:47;;;;;;;0.00;0.00;;;;;;;;;;1732184;28;20208;-63
2023/12/12 04:00:39;;;;;;;0.00;0.00;;;;;;;;;;1730441;28;20215;-64
2023/12/12 04:01:31;;;;;;;0.00;0.00;;;;;;;;;;1731097;28;20204;-66
2023/12/12 04:02:22;;;;;;;0.00;0.00;;;;;;;;;;1731698;28;20619;-63
2023/12/12 04:03:14;;;;;;;0.00;0.00;;;;;;;;;;1732290;28;20203;-64
2023/12/12 04:04:05;;;;;;;0.00;0.00;;;;;;;;;;1731529;28;20265;-64
2023/12/12 04:04:56;;;;;;;0.00;0.00;;;;;;;;;;1732369;28;20207;-63
2023/12/12 04:05:48;;;;;;;0.00;0.00;;;;;;;;;;1731357;28;20242;-65
2023/12/12 04:06:43;;;;;;;0.00;0.00;;;;;;;;;;1732148;28;20742;-65
2023/12/12 04:07:34;;;;;;;0.00;0.00;;;;;;;;;;1731269;28;20224;-63
2023/12/12 04:08:26;;;;;;;0.00;0.00;;;;;;;;;;1730290;28;20222;-63
2023/12/12 04:09:17;;;;;;;0.00;0.00;;;;;;;;;;1730864;28;20720;-64
2023/12/12 04:10:10;;;;;;;0.00;0.00;;;;;;;;;;1731640;28;20227;-60
2023/12/12 04:11:02;;;;;;;0.00;0.00;;;;;;;;;;1736801;28;20246;-63
2023/12/12 04:11:53;;;;;;;0.00;0.00;;;;;;;;;;1738877;28;20207;-62
2023/12/12 04:12:44;;;;;;;0.00;0.00;;;;;;;;;;1739070;28;20256;-63
2023/12/12 04:13:35;;;;;;;0.00;0.00;;;;;;;;;;1738911;28;20207;-64
2023/12/12 04:14:27;;;;;;;0.00;0.00;;;;;;;;;;1738334;28;20223;-64
2023/12/12 04:15:18;;;;;;;0.00;0.00;;;;;;;;;;1737521;28;20340;-66
2023/12/12 04:16:09;;;;;;;0.00;0.00;;;;;;;;;;1738836;28;20246;-64
2023/12/12 04:17:03;;;;;;;0.00;0.00;;;;;;;;;;1738361;28;20345;-65
2023/12/12 04:17:54;;;;;;;0.00;0.00;;;;;;;;;;1737756;28;20235;-63
2023/12/12 04:18:45;;;;;;;0.00;0.00;;;;;;;;;;1738869;28;20207;-61
2023/12/12 04:19:37;;;;;;;0.00;0.00;;;;;;;;;;1738618;28;20211;-64
2023/12/12 04:20:28;;;;;;;0.00;0.00;;;;;;;;;;1732088;28;20303;-60
2023/12/12 04:21:19;;;;;;;0.00;0.00;;;;;;;;;;1727280;28;20207;-62
2023/12/12 04:22:11;;;;;;;0.00;0.00;;;;;;;;;;1732362;28;20677;-62
2023/12/12 04:23:02;;;;;;;0.00;0.00;;;;;;;;;;1735225;28;20626;-62
2023/12/12 04:23:53;;;;;;;0.00;0.00;;;;;;;;;;1738476;28;20253;-62
2023/12/12 04:24:45;;;;;;;0.00;0.00;;;;;;;;;;1739151;28;20301;-62
2023/12/12 04:25:37;;;;;;;0.00;0.00;;;;;;;;;;1737544;28;20265;-62
2023/12/12 04:26:29;;;;;;;0.00;0.00;;;;;;;;;;1738960;28;20267;-65
2023/12/12 04:27:21;;;;;;;0.00;0.00;;;;;;;;;;1738452;28;20219;-63
2023/12/12 04:28:12;;;;;;;0.00;0.00;;;;;;;;;;1739026;28;20228;-66
2023/12/12 04:29:04;;;;;;;0.00;0.00;;;;;;;;;;1738568;28;20258;-65
2023/12/12 04:29:56;;;;;;;0.00;0.00;;;;;;;;;;1739219;28;20222;-61
2023/12/12 04:30:47;;;;;;;0.00;0.00;;;;;;;;;;1737755;28;20839;-63
2023/12/12 04:31:38;;;;;;;0.00;0.00;;;;;;;;;;1739157;28;20207;-65
2023/12/12 04:32:30;;;;;;;0.00;0.00;;;;;;;;;;1738753;28;20207;-62
2023/12/12 04:33:21;;;;;;;0.00;0.00;;;;;;;;;;1738866;28;20689;-62
2023/12/12 04:34:12;;;;;;;0.00;0.00;;;;;;;;;;1737372;28;20222;-66
2023/12/12 04:35:06;;;;;;;0.00;0.00;;;;;;;;;;1739181;28;20198;-62
2023/12/12 04:35:57;;;;;;;0.00;0.00;;;;;;;;;;1737723;28;20239;-62
2023/12/12 04:36:49;;;;;;;0.00;0.00;;;;;;;;;;1739571;28;20291;-65
2023/12/12 04:37:40;;;;;;;0.00;0.00;;;;;;;;;;1738894;28;20570;-67
2023/12/12 04:38:31;;;;;;;0.00;0.00;;;;;;;;;;1739447;28;20612;-62
2023/12/12 04:39:23;;;;;;;0.00;0.00;;;;;;;;;;1738508;28;20622;-66
2023/12/12 04:40:14;;;;;;;0.00;0.00;;;;;;;;;;1738152;28;20333;-66
2023/12/12 04:41:08;;;;;;;0.00;0.00;;;;;;;;;;1738868;28;21025;-65
2023/12/12 04:42:00;;;;;;;0.00;0.00;;;;;;;;;;1738844;28;20211;-65
2023/12/12 04:42:51;;;;;;;0.00;0.00;;;;;;;;;;1739574;28;20624;-62
2023/12/12 04:43:43;;;;;;;0.00;0.00;;;;;;;;;;1738908;28;20215;-62
2023/12/12 04:44:34;;;;;;;0.00;0.00;;;;;;;;;;1739187;28;20210;-62
2023/12/12 04:45:25;;;;;;;0.00;0.00;;;;;;;;;;1737525;28;20261;-66
2023/12/12 04:46:20;;;;;;;0.00;0.00;;;;;;;;;;1735617;28;20294;-62
2023/12/12 04:47:13;;;;;;;0.00;0.00;;;;;;;;;;1738329;28;20269;-62
2023/12/12 04:48:05;;;;;;;0.00;0.00;;;;;;;;;;1736295;28;20578;-65
2023/12/12 04:48:58;;;;;;;0.00;0.00;;;;;;;;;;1738677;28;20264;-62
2023/12/12 04:49:49;;;;;;;0.00;0.00;;;;;;;;;;1739343;28;20400;-65
2023/12/12 04:50:41;;;;;;;0.00;0.00;;;;;;;;;;1737395;28;20230;-66
2023/12/12 04:51:32;;;;;;;0.00;0.00;;;;;;;;;;1738755;28;20276;-64
2023/12/12 04:52:23;;;;;;;0.00;0.00;;;;;;;;;;1738566;28;20290;-67
2023/12/12 04:53:15;;;;;;;0.00;0.00;;;;;;;;;;1738926;28;20361;-66
2023/12/12 04:54:06;;;;;;;0.00;0.00;;;;;;;;;;1738342;28;20339;-65
2023/12/12 04:54:58;;;;;;;0.00;0.00;;;;;;;;;;1738663;28;20213;-64
2023/12/12 04:55:49;;;;;;;0.00;0.00;;;;;;;;;;1737487;28;20287;-64
2023/12/12 04:56:41;;;;;;;0.00;0.00;;;;;;;;;;1738673;28;20257;-65
2023/12/12 04:57:33;;;;;;;0.00;0.00;;;;;;;;;;1737998;28;20277;-65
2023/12/12 04:58:24;;;;;;;0.00;0.00;;;;;;;;;;1738719;28;20604;-62
2023/12/12 04:59:15;;;;;;;0.00;0.00;;;;;;;;;;1738150;28;20206;-64
2023/12/12 05:00:13;;;;;;;0.00;0.00;;;;;;;;;;1738713;28;20199;-61
2023/12/12 05:01:04;;;;;;;0.00;0.00;;;;;;;;;;1737275;28;20242;-64
2023/12/12 05:01:55;;;;;;;0.00;0.00;;;;;;;;;;1737337;28;20269;-67
2023/12/12 05:02:47;;;;;;;0.00;0.00;;;;;;;;;;1738631;28;20199;-62
2023/12/12 05:03:38;;;;;;;0.00;0.00;;;;;;;;;;1738193;28;20211;-68
2023/12/12 05:04:29;;;;;;;0.00;0.00;;;;;;;;;;1738447;28;20233;-62
2023/12/12 05:05:21;;;;;;;0.00;0.00;;;;;;;;;;1737205;28;20272;-64
2023/12/12 05:06:12;;;;;;;0.00;0.00;;;;;;;;;;1738381;28;20199;-65
2023/12/12 05:07:04;;;;;;;0.00;0.00;;;;;;;;;;1738164;28;20207;-62
2023/12/12 05:07:56;;;;;;;0.00;0.00;;;;;;;;;;1738578;28;20728;-62
2023/12/12 05:08:47;;;;;;;0.00;0.00;;;;;;;;;;1738278;28;20230;-65
2023/12/12 05:09:38;;;;;;;0.00;0.00;;;;;;;;;;1738856;28;20862;-64